Battleboro, North Carolina
Current Conditions -  °F | °C
As of 11:15 AM on Sunday 25 Jan 2015 (Local Time) from KETC Reporting Station
Clear Clear  
Wind Chill: 48°   Ceiling: Unl
Heat Index: 48°   Visibility: 10mi
Dew Point: 31°   Wind: 3mph
Humidity: 53%   Direction: 300°WNW
Pressure: 29.96"   Gusts: NA
Location:  36.05°N, 77.75°W
Report Text: KETC 251615Z AUTO 30003KT 10SM CLR 09/00 A2996 RMK AO2 T00881003
Loading
Personal Weather Stations






























Interactive Weather Map New forecast layout! Learn more

10-Day Weather Forecast

Advertisements
Track Severe Weather on mobile